Mackenzie - Mackenzie River: Past 24 Hour Conditions

 

Stony Rapids Airport

04:00 AM CST 26 November 2014
This table is a summary of hourly weather conditions for the past 24 hours.
Date / Time
(CST)
Wind(knots) Conditions Visibility(km) Pressure(kPa) Air tempC) Relative humidity(%) Dew pointC) Wind Chill
26 November 2014
4:00 SE 2 Mostly Cloudy 16 103.4 -37 65 -41 -42
3:00 ESE 2 Clear 16 103.4 -36 67 -40 -41
2:00 SE 2 Clear 16 103.4 -37 67 -41 -42
1:00 NE 2 Clear 16 103.3 -36 68 -40 -41
0:00 SE 2 Clear 16 103.3 -36 67 -40 -41
25 November 2014
23:00 calm Partly Cloudy 16 103.3 -35 67 -39 *
22:00 calm Mainly Clear 16 103.3 -34 69 -38 *
21:00 calm Clear 16 103.2 -34 70 -38 *
20:00 NW 2 Clear 16 103.2 -32 71 -36 -37
19:00 NW 4 Clear 11 103.2 -29 75 -32 -36
18:00 W 4 Clear 16 103.2 -30 69 -34 -38
17:00 WNW 3 Clear 16 103.1 -29 73 -32 -35
16:00 W 4 Sunny 16 103.0 -27 72 -31 -35
15:00 W 4 Sunny 16 103.0 -27 72 -31 -34
14:00 WNW 3 Sunny 16 102.9 -28 73 -31 -33
13:00 W 4 Sunny 16 102.9 -29 73 -32 -37
12:00 NW 3 Sunny 11 102.9 -31 71 -35 -37
11:00 SSE 2 Sunny 16 102.8 -35 68 -39 -40
10:00 calm Haze 5 102.8 -38 65 -42 *
9:00 SE 2 Clear 16 102.7 -38 65 -42 -44
8:00 NE 2 Clear 16 102.6 -38 64 -43 -44
7:00 calm Clear 16 102.6 -38 65 -42 *
6:00 calm Mainly Clear 16 102.5 -38 64 -42 *
5:00 SE 3 Clear 16 102.5 -38 66 -42 -45
4:00 E 2 Clear 16 102.5 -38 66 -42 -43
 
Map of Mackenzie - Mackenzie River marine weather areas Great Slave Lake - 45141 Great Slave Lake North Arm - 45150 Herschel Island Komakuk Beach Shingle Point Airport Aklavik Airport Cape Parry Airport Fort Good Hope Airport Tulita Airport Fort Providence Fort Reliance Fort Resolution Airport Fort Simpson Airport Hay River/Merlyn Carter Airport Inner Whaleback Rocks Inuvik Airport Keats Point Norman Wells Airport Paulatuk Airport Pelly Island Tuktoyaktuk Airport Wrigley Airport Yellowknife Airport Kugluktuk Airport Hat Island Cambridge Bay Airport Cape Peel West Stefansson Island Ulukhaktok Airport Sachs Harbour Airport Thomsen River Egg Island Fort Chipewyan Airport Stony Rapids Airport Liverpool Bay Little Chicago Lutselke Airport Storm Hills Croker River Prairie River Uranium City Bathurst Inlet Gateshead Island
Legend: buoyBuoy land stationLand Station